Time;durP1;ratioP1;P1;durP2;ratioP2;P2;SDS_P1;SDS_P2;PMS_P1;PMS_P2;Temp;Humidity;BMP_temperature;BMP_pressure;BME280_temperature;BME280_humidity;BME280_pressure;Samples;Min_cycle;Max_cycle;Signal;HPM_P1;HPM_P2
2023/11/12 00:00:42;;;;;;;9.32;5.90;;;;;;;;;;4956947;28;20026;-79
2023/11/12 00:03:08;;;;;;;8.50;5.88;;;;;;;;;;4956818;28;20114;-79
2023/11/12 00:05:34;;;;;;;9.25;6.25;;;;;;;;;;4980052;28;20490;-79
2023/11/12 00:07:59;;;;;;;10.68;6.47;;;;;;;;;;4972653;28;20076;-79
2023/11/12 00:10:25;;;;;;;13.02;6.30;;;;;;;;;;4958468;28;20039;-79
2023/11/12 00:12:51;;;;;;;10.70;6.60;;;;;;;;;;4975581;28;20026;-78
2023/11/12 00:15:16;;;;;;;9.88;6.18;;;;;;;;;;4975496;28;20511;-79
2023/11/12 00:17:42;;;;;;;12.57;6.70;;;;;;;;;;4973574;28;20038;-79
2023/11/12 00:20:12;;;;;;;10.68;6.38;;;;;;;;;;4976481;28;20046;-79
2023/11/12 00:22:41;;;;;;;9.82;6.30;;;;;;;;;;4975289;28;20030;-78
2023/11/12 00:25:12;;;;;;;9.80;6.95;;;;;;;;;;4966817;28;20168;-80
2023/11/12 00:27:37;;;;;;;10.82;6.78;;;;;;;;;;4965160;28;20037;-79
2023/11/12 00:30:04;;;;;;;10.70;6.55;;;;;;;;;;4975794;28;20027;-79
2023/11/12 00:32:29;;;;;;;8.85;6.32;;;;;;;;;;4954698;28;20393;-79
2023/11/12 00:34:55;;;;;;;10.48;6.68;;;;;;;;;;4976868;28;20022;-79
2023/11/12 00:37:20;;;;;;;9.45;6.43;;;;;;;;;;4954545;28;20254;-79
2023/11/12 00:39:45;;;;;;;10.93;7.00;;;;;;;;;;4966437;28;20053;-79
2023/11/12 00:42:11;;;;;;;11.05;6.38;;;;;;;;;;4987292;28;20607;-78
2023/11/12 00:44:37;;;;;;;9.63;6.30;;;;;;;;;;4977662;28;20058;-79
2023/11/12 00:47:03;;;;;;;9.98;6.72;;;;;;;;;;4975808;28;20022;-79
2023/11/12 00:49:28;;;;;;;10.68;7.00;;;;;;;;;;4979385;28;20488;-79
2023/11/12 00:51:53;;;;;;;9.65;6.95;;;;;;;;;;4975296;28;20033;-79
2023/11/12 00:54:19;;;;;;;9.57;6.50;;;;;;;;;;4976388;28;20492;-79
2023/11/12 00:56:44;;;;;;;11.23;7.30;;;;;;;;;;4982017;28;20034;-79
2023/11/12 00:59:10;;;;;;;10.40;6.93;;;;;;;;;;4976490;28;20769;-79
2023/11/12 01:01:35;;;;;;;10.00;6.50;;;;;;;;;;4973351;28;20400;-79
2023/11/12 01:04:01;;;;;;;8.80;6.35;;;;;;;;;;4975892;28;20081;-79
2023/11/12 01:06:26;;;;;;;10.07;6.60;;;;;;;;;;4973230;28;20046;-76
2023/11/12 01:08:52;;;;;;;10.63;6.82;;;;;;;;;;4975222;28;20117;-76
2023/11/12 01:11:17;;;;;;;8.65;5.90;;;;;;;;;;4977891;28;20042;-76
2023/11/12 01:13:43;;;;;;;10.90;7.15;;;;;;;;;;4982067;28;20054;-76
2023/11/12 01:16:08;;;;;;;11.45;7.60;;;;;;;;;;4963230;28;20069;-76
2023/11/12 01:18:35;;;;;;;9.10;6.18;;;;;;;;;;4974992;28;20062;-76
2023/11/12 01:21:02;;;;;;;9.70;7.15;;;;;;;;;;4980452;28;20023;-76
2023/11/12 01:23:27;;;;;;;9.88;6.95;;;;;;;;;;4974803;28;20050;-76
2023/11/12 01:25:54;;;;;;;9.48;6.80;;;;;;;;;;4978275;28;20073;-76
2023/11/12 01:28:20;;;;;;;10.93;6.95;;;;;;;;;;4977941;28;20055;-76
2023/11/12 01:30:46;;;;;;;9.63;7.57;;;;;;;;;;4974357;28;20027;-76
2023/11/12 01:33:11;;;;;;;10.63;7.40;;;;;;;;;;4974137;28;20041;-76
2023/11/12 01:35:38;;;;;;;10.32;6.63;;;;;;;;;;4959398;28;20384;-77
2023/11/12 01:38:03;;;;;;;8.70;6.57;;;;;;;;;;4969899;28;20539;-76
2023/11/12 01:40:30;;;;;;;10.98;7.30;;;;;;;;;;4973676;28;20039;-76
2023/11/12 01:42:55;;;;;;;9.18;6.22;;;;;;;;;;4974571;28;20030;-76
2023/11/12 01:45:21;;;;;;;11.00;7.47;;;;;;;;;;4975207;28;20026;-76
2023/11/12 01:47:47;;;;;;;11.88;6.97;;;;;;;;;;4959249;28;20464;-76
2023/11/12 01:50:13;;;;;;;12.13;7.22;;;;;;;;;;4968264;28;20410;-76
2023/11/12 01:52:40;;;;;;;9.13;6.88;;;;;;;;;;4965702;28;20035;-77
2023/11/12 01:55:09;;;;;;;11.10;7.00;;;;;;;;;;4948663;28;20539;-76
2023/11/12 01:57:34;;;;;;;11.07;7.22;;;;;;;;;;4970299;28;20034;-76
2023/11/12 02:00:07;;;;;;;9.23;6.80;;;;;;;;;;4941255;28;20251;-76
2023/11/12 02:02:35;;;;;;;12.02;7.55;;;;;;;;;;4966953;28;20027;-76
2023/11/12 02:05:01;;;;;;;8.73;6.85;;;;;;;;;;4982090;28;20110;-76
2023/11/12 02:07:27;;;;;;;9.20;6.70;;;;;;;;;;4968338;28;20031;-76
2023/11/12 02:10:04;;;;;;;9.77;6.72;;;;;;;;;;4964174;28;20095;-76
2023/11/12 02:12:30;;;;;;;10.80;7.10;;;;;;;;;;4966201;28;20122;-76
2023/11/12 02:14:55;;;;;;;9.52;6.30;;;;;;;;;;4950895;28;20462;-76
2023/11/12 02:17:21;;;;;;;12.48;7.30;;;;;;;;;;4965433;28;20074;-79
2023/11/12 02:19:46;;;;;;;11.88;7.30;;;;;;;;;;4952729;28;20147;-78
2023/11/12 02:22:12;;;;;;;10.73;7.28;;;;;;;;;;4968720;28;20085;-78
2023/11/12 02:24:38;;;;;;;9.48;7.18;;;;;;;;;;4949893;28;20138;-79
2023/11/12 02:27:03;;;;;;;10.27;6.95;;;;;;;;;;4966208;28;20041;-79
2023/11/12 02:29:28;;;;;;;10.27;7.13;;;;;;;;;;4964955;28;20500;-79
2023/11/12 02:31:54;;;;;;;9.98;7.20;;;;;;;;;;4946941;28;20031;-79
2023/11/12 02:34:21;;;;;;;11.73;7.80;;;;;;;;;;4966221;28;20065;-79
2023/11/12 02:36:46;;;;;;;12.38;7.60;;;;;;;;;;4946788;28;20027;-79
2023/11/12 02:39:12;;;;;;;10.85;7.65;;;;;;;;;;4952111;28;20027;-79
2023/11/12 02:41:38;;;;;;;10.90;7.60;;;;;;;;;;4946281;28;20488;-79
2023/11/12 02:44:07;;;;;;;10.20;6.88;;;;;;;;;;4972040;28;20084;-79
2023/11/12 02:46:33;;;;;;;10.35;7.95;;;;;;;;;;4957493;28;20027;-79
2023/11/12 02:49:07;;;;;;;10.90;8.10;;;;;;;;;;4979765;28;20634;-79
2023/11/12 02:51:32;;;;;;;12.75;7.75;;;;;;;;;;4965508;28;20113;-79
2023/11/12 02:53:58;;;;;;;13.88;7.97;;;;;;;;;;4973517;28;20118;-79
2023/11/12 02:56:23;;;;;;;12.88;8.38;;;;;;;;;;4980760;28;20100;-79
2023/11/12 02:58:49;;;;;;;12.27;8.55;;;;;;;;;;4970041;28;20049;-79
2023/11/12 03:01:15;;;;;;;12.15;8.32;;;;;;;;;;4940594;28;20026;-79
2023/11/12 03:03:41;;;;;;;11.38;8.45;;;;;;;;;;4975086;28;20031;-79
2023/11/12 03:06:07;;;;;;;12.23;9.13;;;;;;;;;;4980702;28;20031;-79
2023/11/12 03:08:32;;;;;;;12.35;9.23;;;;;;;;;;4974513;28;20030;-79
2023/11/12 03:10:58;;;;;;;12.23;8.40;;;;;;;;;;4979487;28;20114;-79
2023/11/12 03:13:23;;;;;;;12.18;8.30;;;;;;;;;;4975491;28;20030;-79
2023/11/12 03:15:49;;;;;;;13.38;9.63;;;;;;;;;;4953959;28;20489;-76
2023/11/12 03:18:14;;;;;;;12.27;8.95;;;;;;;;;;4973266;28;20686;-79
2023/11/12 03:20:40;;;;;;;13.48;9.35;;;;;;;;;;4970120;28;20035;-79
2023/11/12 03:23:07;;;;;;;13.88;9.32;;;;;;;;;;4964594;28;20038;-79
2023/11/12 03:25:32;;;;;;;12.52;9.50;;;;;;;;;;4966029;28;20053;-79
2023/11/12 03:27:57;;;;;;;12.93;9.82;;;;;;;;;;4947509;28;20121;-79
2023/11/12 03:30:23;;;;;;;12.50;9.95;;;;;;;;;;4966311;28;20161;-79
2023/11/12 03:32:48;;;;;;;15.07;10.18;;;;;;;;;;4965971;28;20404;-79
2023/11/12 03:35:14;;;;;;;13.90;10.45;;;;;;;;;;4965903;28;20031;-79
2023/11/12 03:37:39;;;;;;;15.75;10.07;;;;;;;;;;4966872;28;20031;-79
2023/11/12 03:40:05;;;;;;;14.07;10.30;;;;;;;;;;4967495;28;20026;-78
2023/11/12 03:42:31;;;;;;;15.07;10.73;;;;;;;;;;4968977;28;20616;-79
2023/11/12 03:44:57;;;;;;;13.63;10.57;;;;;;;;;;4975441;28;20130;-79
2023/11/12 03:47:24;;;;;;;16.55;11.45;;;;;;;;;;4979447;28;20038;-79
2023/11/12 03:49:49;;;;;;;14.60;11.27;;;;;;;;;;4977685;28;20058;-79
2023/11/12 03:52:15;;;;;;;14.85;11.23;;;;;;;;;;4976780;28;20054;-80
2023/11/12 03:54:40;;;;;;;16.92;10.93;;;;;;;;;;4965223;28;20536;-79
2023/11/12 03:57:06;;;;;;;16.63;11.23;;;;;;;;;;4979215;28;20030;-79
2023/11/12 03:59:31;;;;;;;16.48;11.68;;;;;;;;;;4979832;28;20042;-79
2023/11/12 04:01:57;;;;;;;16.70;10.85;;;;;;;;;;4979552;28;20045;-79
2023/11/12 04:04:23;;;;;;;16.73;10.82;;;;;;;;;;4972064;28;20058;-79
2023/11/12 04:06:49;;;;;;;15.95;11.57;;;;;;;;;;4946870;28;20078;-79
2023/11/12 04:09:14;;;;;;;16.25;10.70;;;;;;;;;;4973599;28;20066;-79
2023/11/12 04:11:40;;;;;;;15.82;10.85;;;;;;;;;;4976572;28;20027;-79
2023/11/12 04:14:07;;;;;;;17.80;12.18;;;;;;;;;;4970655;28;20018;-79
2023/11/12 04:16:34;;;;;;;16.65;12.05;;;;;;;;;;4968261;28;20018;-79
2023/11/12 04:19:03;;;;;;;13.90;11.10;;;;;;;;;;4963194;28;20495;-79
2023/11/12 04:21:29;;;;;;;15.43;11.52;;;;;;;;;;4950436;28;20113;-79
2023/11/12 04:23:55;;;;;;;17.05;12.27;;;;;;;;;;4956267;28;20044;-79
2023/11/12 04:26:20;;;;;;;16.58;11.45;;;;;;;;;;4969334;28;20039;-79
2023/11/12 04:28:45;;;;;;;16.10;11.60;;;;;;;;;;4964859;28;20038;-79
2023/11/12 04:31:11;;;;;;;15.77;11.63;;;;;;;;;;4964483;28;20022;-79
2023/11/12 04:33:36;;;;;;;15.52;11.48;;;;;;;;;;4967003;28;20031;-79
2023/11/12 04:36:01;;;;;;;17.85;11.65;;;;;;;;;;4965487;28;20030;-76
2023/11/12 04:38:27;;;;;;;23.52;14.13;;;;;;;;;;4966821;28;20030;-76
2023/11/12 04:40:53;;;;;;;18.00;13.38;;;;;;;;;;4968016;28;20082;-76
2023/11/12 04:43:18;;;;;;;20.75;13.07;;;;;;;;;;4967721;28;20026;-76
2023/11/12 04:45:44;;;;;;;21.70;14.15;;;;;;;;;;4963256;28;20037;-76
2023/11/12 04:48:11;;;;;;;20.85;14.68;;;;;;;;;;4949131;28;20035;-76
2023/11/12 04:50:37;;;;;;;21.63;14.48;;;;;;;;;;4972636;28;20029;-76
2023/11/12 04:53:04;;;;;;;19.48;14.20;;;;;;;;;;4960633;28;20031;-76
2023/11/12 04:55:29;;;;;;;22.33;14.63;;;;;;;;;;4977072;28;20033;-76
2023/11/12 04:57:54;;;;;;;21.50;14.65;;;;;;;;;;4958044;28;20026;-76
2023/11/12 05:00:20;;;;;;;25.90;15.75;;;;;;;;;;4969082;28;20034;-76
2023/11/12 05:02:45;;;;;;;22.63;14.50;;;;;;;;;;4978412;28;20088;-76
2023/11/12 05:05:11;;;;;;;24.02;15.32;;;;;;;;;;4971157;28;20117;-76
2023/11/12 05:07:37;;;;;;;21.50;14.55;;;;;;;;;;4979891;28;20026;-76
2023/11/12 05:10:05;;;;;;;22.70;15.40;;;;;;;;;;4974024;28;20489;-76
2023/11/12 05:12:30;;;;;;;24.80;15.68;;;;;;;;;;4975135;28;20035;-76
2023/11/12 05:14:56;;;;;;;22.80;14.50;;;;;;;;;;4974776;28;20026;-76
2023/11/12 05:17:22;;;;;;;22.85;14.68;;;;;;;;;;4956042;28;20030;-76
2023/11/12 05:19:47;;;;;;;22.92;15.68;;;;;;;;;;4968955;28;20030;-76
2023/11/12 05:22:13;;;;;;;24.58;16.25;;;;;;;;;;4969296;28;20039;-76
2023/11/12 05:24:38;;;;;;;23.05;15.27;;;;;;;;;;4967132;28;20089;-76
2023/11/12 05:27:04;;;;;;;26.42;16.70;;;;;;;;;;4968920;28;20027;-76
2023/11/12 05:29:29;;;;;;;25.73;16.40;;;;;;;;;;4978051;28;20121;-76
2023/11/12 05:31:56;;;;;;;25.42;17.23;;;;;;;;;;4973057;28;20030;-76
2023/11/12 05:34:21;;;;;;;24.20;16.50;;;;;;;;;;4968126;28;20064;-76
2023/11/12 05:36:47;;;;;;;24.80;16.90;;;;;;;;;;4966727;28;20061;-79
2023/11/12 05:39:13;;;;;;;26.13;16.10;;;;;;;;;;4965591;28;20128;-79
2023/11/12 05:41:38;;;;;;;25.98;16.17;;;;;;;;;;4963749;28;20026;-79
2023/11/12 05:44:05;;;;;;;24.10;16.13;;;;;;;;;;4931852;28;20038;-79
2023/11/12 05:46:30;;;;;;;24.05;16.77;;;;;;;;;;4966637;28;20034;-76
2023/11/12 05:48:55;;;;;;;23.95;16.30;;;;;;;;;;4963228;28;20143;-76
2023/11/12 05:51:21;;;;;;;23.75;15.20;;;;;;;;;;4966339;28;20507;-76
2023/11/12 05:53:46;;;;;;;21.45;14.38;;;;;;;;;;4962591;28;20121;-76
2023/11/12 05:56:12;;;;;;;22.02;14.55;;;;;;;;;;4975548;28;20122;-76
2023/11/12 05:58:37;;;;;;;20.00;14.43;;;;;;;;;;4964285;28;20026;-77
2023/11/12 06:01:03;;;;;;;24.50;14.75;;;;;;;;;;4965221;28;20034;-76
2023/11/12 06:03:29;;;;;;;20.63;13.88;;;;;;;;;;4961765;28;20033;-76
2023/11/12 06:05:56;;;;;;;18.80;12.63;;;;;;;;;;4963398;28;20053;-76
2023/11/12 06:08:22;;;;;;;17.23;12.02;;;;;;;;;;4964472;28;21043;-77
2023/11/12 06:10:48;;;;;;;17.20;12.30;;;;;;;;;;4961027;28;20054;-76
2023/11/12 06:13:14;;;;;;;19.00;11.98;;;;;;;;;;4945877;28;20038;-76
2023/11/12 06:15:40;;;;;;;17.58;12.07;;;;;;;;;;4964896;28;20018;-77
2023/11/12 06:18:06;;;;;;;18.00;11.63;;;;;;;;;;4962636;28;20116;-76
2023/11/12 06:20:33;;;;;;;19.20;11.52;;;;;;;;;;4966907;28;20061;-76
2023/11/12 06:22:58;;;;;;;14.35;10.63;;;;;;;;;;4965442;28;20117;-76
2023/11/12 06:25:24;;;;;;;17.15;11.27;;;;;;;;;;4969193;28;20632;-76
2023/11/12 06:27:50;;;;;;;14.82;10.55;;;;;;;;;;4969544;28;20023;-76
2023/11/12 06:30:15;;;;;;;14.82;10.73;;;;;;;;;;4973613;28;20569;-76
2023/11/12 06:32:41;;;;;;;16.75;10.80;;;;;;;;;;4979001;28;20481;-76
2023/11/12 06:35:06;;;;;;;15.82;10.68;;;;;;;;;;4972771;28;20369;-76
2023/11/12 06:37:32;;;;;;;16.25;10.25;;;;;;;;;;4972365;28;20027;-76
2023/11/12 06:39:57;;;;;;;14.38;9.73;;;;;;;;;;4975400;28;20069;-76
2023/11/12 06:42:24;;;;;;;17.45;10.77;;;;;;;;;;4954717;28;20026;-76
2023/11/12 06:44:50;;;;;;;17.80;10.70;;;;;;;;;;4972555;28;20562;-76
2023/11/12 06:47:15;;;;;;;16.02;10.32;;;;;;;;;;4968092;28;20122;-79
2023/11/12 06:49:41;;;;;;;14.68;10.07;;;;;;;;;;4972705;28;20042;-79
2023/11/12 06:52:06;;;;;;;14.48;10.23;;;;;;;;;;4971117;28;20034;-79
2023/11/12 06:54:32;;;;;;;16.98;10.23;;;;;;;;;;4956409;28;20078;-78
2023/11/12 06:56:59;;;;;;;15.00;10.00;;;;;;;;;;4973018;28;20042;-79
2023/11/12 06:59:26;;;;;;;15.20;9.82;;;;;;;;;;4972183;28;20027;-79
2023/11/12 07:01:51;;;;;;;16.48;10.23;;;;;;;;;;4973020;28;20058;-79
2023/11/12 07:04:17;;;;;;;14.02;9.55;;;;;;;;;;4969168;28;20109;-79
2023/11/12 07:06:42;;;;;;;13.68;9.55;;;;;;;;;;4954257;28;20027;-79
2023/11/12 07:09:08;;;;;;;15.10;10.35;;;;;;;;;;4984433;28;20043;-79
2023/11/12 07:11:35;;;;;;;12.98;9.27;;;;;;;;;;4977675;28;20579;-79
2023/11/12 07:14:01;;;;;;;16.08;9.70;;;;;;;;;;4975491;28;20026;-78
2023/11/12 07:16:26;;;;;;;15.65;10.93;;;;;;;;;;4974254;28;20073;-79
2023/11/12 07:18:52;;;;;;;14.88;10.02;;;;;;;;;;4988107;28;20062;-79
2023/11/12 07:21:28;;;;;;;16.40;11.15;;;;;;;;;;4978059;28;20042;-79
2023/11/12 07:23:53;;;;;;;16.73;10.73;;;;;;;;;;4958634;28;20564;-79
2023/11/12 07:26:19;;;;;;;15.65;10.57;;;;;;;;;;4973062;28;20121;-79
2023/11/12 07:28:44;;;;;;;16.17;10.75;;;;;;;;;;4971495;28;20027;-79
2023/11/12 07:31:09;;;;;;;14.98;10.07;;;;;;;;;;4977554;28;20018;-79
2023/11/12 07:33:35;;;;;;;17.65;10.63;;;;;;;;;;4971995;28;20033;-79
2023/11/12 07:36:00;;;;;;;16.45;11.30;;;;;;;;;;4979952;28;20400;-79
2023/11/12 07:38:26;;;;;;;16.10;10.50;;;;;;;;;;4953991;28;20023;-79
2023/11/12 07:40:52;;;;;;;17.05;11.13;;;;;;;;;;4970096;28;20062;-79
2023/11/12 07:43:17;;;;;;;17.40;11.45;;;;;;;;;;4965861;28;20142;-79
2023/11/12 07:45:43;;;;;;;16.00;11.07;;;;;;;;;;4951794;28;20099;-79
2023/11/12 07:48:08;;;;;;;14.90;10.93;;;;;;;;;;4966566;28;20031;-79
2023/11/12 07:50:36;;;;;;;16.30;11.90;;;;;;;;;;4972196;28;20034;-79
2023/11/12 07:53:03;;;;;;;17.08;11.75;;;;;;;;;;4969800;28;20504;-79
2023/11/12 07:55:29;;;;;;;19.05;12.00;;;;;;;;;;4966832;28;20037;-79
2023/11/12 07:57:55;;;;;;;19.63;12.68;;;;;;;;;;4969249;28;20118;-79
2023/11/12 08:00:22;;;;;;;19.75;12.77;;;;;;;;;;4967138;28;20041;-79
2023/11/12 08:02:47;;;;;;;21.52;13.50;;;;;;;;;;4955343;28;20022;-79
2023/11/12 08:05:13;;;;;;;19.50;12.38;;;;;;;;;;4974133;28;20498;-79
2023/11/12 08:07:38;;;;;;;18.45;12.50;;;;;;;;;;4969699;28;20046;-76
2023/11/12 08:10:05;;;;;;;20.15;13.07;;;;;;;;;;4955691;28;20030;-76
2023/11/12 08:12:31;;;;;;;16.88;11.55;;;;;;;;;;4955477;28;20905;-76
2023/11/12 08:14:57;;;;;;;17.95;11.57;;;;;;;;;;4972610;28;20037;-76
2023/11/12 08:17:23;;;;;;;17.05;11.15;;;;;;;;;;4975158;28;20034;-76
2023/11/12 08:19:48;;;;;;;15.35;10.85;;;;;;;;;;4982166;28;20034;-76
2023/11/12 08:22:13;;;;;;;17.75;11.45;;;;;;;;;;4971677;28;20480;-76
2023/11/12 08:24:40;;;;;;;14.98;11.05;;;;;;;;;;4974864;28;20035;-76
2023/11/12 08:27:07;;;;;;;17.50;11.63;;;;;;;;;;4953755;28;20030;-76
2023/11/12 08:29:34;;;;;;;15.88;10.60;;;;;;;;;;4966196;28;20054;-76
2023/11/12 08:32:00;;;;;;;16.45;10.48;;;;;;;;;;4974709;28;20105;-76
2023/11/12 08:34:25;;;;;;;16.35;10.23;;;;;;;;;;4959615;28;20481;-76
2023/11/12 08:36:51;;;;;;;13.73;9.25;;;;;;;;;;4971164;28;20042;-76
2023/11/12 08:39:16;;;;;;;14.50;10.07;;;;;;;;;;4971597;28;20037;-76
2023/11/12 08:41:44;;;;;;;14.32;9.82;;;;;;;;;;4957019;28;20473;-76
2023/11/12 08:44:10;;;;;;;13.48;9.07;;;;;;;;;;4975938;28;20068;-76
2023/11/12 08:46:36;;;;;;;13.02;8.75;;;;;;;;;;4956219;28;20053;-77
2023/11/12 08:49:04;;;;;;;12.25;8.55;;;;;;;;;;4964301;28;20102;-76
2023/11/12 08:51:30;;;;;;;12.27;8.00;;;;;;;;;;4977785;28;20030;-76
2023/11/12 08:53:55;;;;;;;13.27;9.05;;;;;;;;;;4985625;28;20032;-76
2023/11/12 08:56:20;;;;;;;13.48;8.00;;;;;;;;;;4969679;28;20027;-76
2023/11/12 08:58:46;;;;;;;12.00;8.40;;;;;;;;;;4954579;28;20031;-76
2023/11/12 09:01:12;;;;;;;12.05;8.38;;;;;;;;;;4966368;28;20053;-77
2023/11/12 09:03:38;;;;;;;11.07;7.45;;;;;;;;;;4939667;28;20157;-77
2023/11/12 09:06:04;;;;;;;10.95;7.57;;;;;;;;;;4968014;28;20089;-77
2023/11/12 09:08:30;;;;;;;11.95;7.95;;;;;;;;;;4960196;28;20015;-77
2023/11/12 09:10:55;;;;;;;10.32;7.30;;;;;;;;;;4948193;28;20027;-76
2023/11/12 09:13:21;;;;;;;10.93;6.97;;;;;;;;;;4945588;28;20042;-77
2023/11/12 09:15:47;;;;;;;10.85;7.20;;;;;;;;;;4942285;28;20073;-79
2023/11/12 09:18:12;;;;;;;10.13;6.80;;;;;;;;;;4942659;28;20055;-77
2023/11/12 09:20:38;;;;;;;12.18;7.70;;;;;;;;;;4963561;28;20034;-77
2023/11/12 09:23:03;;;;;;;9.48;6.60;;;;;;;;;;4962774;28;20110;-77
2023/11/12 09:25:29;;;;;;;10.68;5.88;;;;;;;;;;4957142;28;20026;-77
2023/11/12 09:27:55;;;;;;;14.70;6.30;;;;;;;;;;4966594;28;20027;-77
2023/11/12 09:30:22;;;;;;;8.57;6.28;;;;;;;;;;4957550;28;20749;-77
2023/11/12 09:32:47;;;;;;;9.50;6.32;;;;;;;;;;4971013;28;20487;-77
2023/11/12 09:35:14;;;;;;;9.52;6.05;;;;;;;;;;4960739;28;20478;-77
2023/11/12 09:37:40;;;;;;;10.13;6.70;;;;;;;;;;4962829;28;20041;-77
2023/11/12 09:40:10;;;;;;;9.70;5.97;;;;;;;;;;4943650;28;20325;-77
2023/11/12 09:42:38;;;;;;;10.75;6.47;;;;;;;;;;4969299;28;20212;-76
2023/11/12 09:45:08;;;;;;;11.30;6.00;;;;;;;;;;4955499;28;20040;-77
2023/11/12 09:47:46;;;;;;;9.65;5.90;;;;;;;;;;4958200;28;20033;-77
2023/11/12 09:50:12;;;;;;;12.77;5.95;;;;;;;;;;4950423;28;20030;-76
2023/11/12 09:52:38;;;;;;;9.45;5.53;;;;;;;;;;4969113;28;20039;-76
2023/11/12 09:55:06;;;;;;;11.63;6.43;;;;;;;;;;4960515;28;20562;-76
2023/11/12 09:57:32;;;;;;;8.82;5.88;;;;;;;;;;4962552;28;20027;-76
2023/11/12 09:59:58;;;;;;;11.10;6.15;;;;;;;;;;4961570;28;20037;-77
2023/11/12 10:02:25;;;;;;;9.55;6.30;;;;;;;;;;4962660;28;20049;-77
2023/11/12 10:05:13;;;;;;;11.98;6.80;;;;;;;;;;4958821;28;20114;-76
2023/11/12 10:07:43;;;;;;;18.08;6.53;;;;;;;;;;4942083;28;20074;-76
2023/11/12 10:10:26;;;;;;;12.30;7.38;;;;;;;;;;4961106;28;20027;-76
2023/11/12 10:12:53;;;;;;;11.57;7.20;;;;;;;;;;4959487;28;20039;-76
2023/11/12 10:15:27;;;;;;;13.02;7.25;;;;;;;;;;4960815;28;20068;-76
2023/11/12 10:17:54;;;;;;;10.73;6.70;;;;;;;;;;4957043;28;20041;-76
2023/11/12 10:20:27;;;;;;;11.68;6.85;;;;;;;;;;4963780;28;20026;-76
2023/11/12 10:22:53;;;;;;;12.02;7.10;;;;;;;;;;4958039;28;20039;-76
2023/11/12 10:25:37;;;;;;;11.48;7.22;;;;;;;;;;4952394;28;22394;-76
2023/11/12 10:28:10;;;;;;;11.00;7.07;;;;;;;;;;4957605;28;20054;-79
2023/11/12 10:30:37;;;;;;;11.77;7.10;;;;;;;;;;4966545;28;20046;-79
2023/11/12 10:33:24;;;;;;;12.52;7.78;;;;;;;;;;4959979;28;20062;-79
2023/11/12 10:35:50;;;;;;;14.05;8.52;;;;;;;;;;4956105;28;20050;-80
2023/11/12 10:38:17;;;;;;;13.00;7.72;;;;;;;;;;4966551;28;20481;-79
2023/11/12 10:41:02;;;;;;;10.88;7.22;;;;;;;;;;4957450;28;20505;-79
2023/11/12 10:43:33;;;;;;;11.18;7.32;;;;;;;;;;4956227;28;20093;-80
2023/11/12 10:46:00;;;;;;;11.88;7.60;;;;;;;;;;4972965;28;20034;-80
2023/11/12 10:48:39;;;;;;;11.75;7.68;;;;;;;;;;4962701;28;20564;-79
2023/11/12 10:51:10;;;;;;;10.57;7.63;;;;;;;;;;4971297;28;20122;-78
2023/11/12 10:53:38;;;;;;;11.45;7.30;;;;;;;;;;4947674;28;20026;-80
2023/11/12 10:56:05;;;;;;;11.85;7.50;;;;;;;;;;4979937;28;20610;-79
2023/11/12 10:58:32;;;;;;;12.68;7.57;;;;;;;;;;4964541;28;20034;-79
2023/11/12 11:01:03;;;;;;;11.10;7.18;;;;;;;;;;4956988;28;20583;-79
2023/11/12 11:03:33;;;;;;;9.07;6.05;;;;;;;;;;4958609;28;20031;-78
2023/11/12 11:06:03;;;;;;;7.97;5.53;;;;;;;;;;4950257;28;20034;-78
2023/11/12 11:08:36;;;;;;;9.85;6.25;;;;;;;;;;4965487;28;20492;-79
2023/11/12 11:11:03;;;;;;;11.23;6.53;;;;;;;;;;4963714;28;20026;-80
2023/11/12 11:13:29;;;;;;;12.40;7.35;;;;;;;;;;4971701;28;20038;-80
2023/11/12 11:15:56;;;;;;;20.05;7.25;;;;;;;;;;4968045;28;20035;-80
2023/11/12 11:18:30;;;;;;;18.20;7.47;;;;;;;;;;4961318;28;20026;-79
2023/11/12 11:21:17;;;;;;;16.25;7.95;;;;;;;;;;4952787;28;20053;-82
2023/11/12 11:23:53;;;;;;;18.92;7.38;;;;;;;;;;4945167;28;20027;-82
2023/11/12 11:26:33;;;;;;;15.73;6.95;;;;;;;;;;4961056;28;20104;-83
2023/11/12 11:29:12;;;;;;;12.27;7.22;;;;;;;;;;4948043;28;20121;-81
2023/11/12 11:31:45;;;;;;;13.90;7.85;;;;;;;;;;4964537;28;20413;-82
2023/11/12 11:34:13;;;;;;;11.77;6.90;;;;;;;;;;4937539;28;20109;-82
2023/11/12 11:36:40;;;;;;;12.48;7.63;;;;;;;;;;4948953;28;20038;-79
2023/11/12 11:39:15;;;;;;;12.00;7.32;;;;;;;;;;4964610;28;20204;-77
2023/11/12 11:41:55;;;;;;;10.68;6.65;;;;;;;;;;4958425;28;20050;-78
2023/11/12 11:44:42;;;;;;;11.48;6.85;;;;;;;;;;4968107;28;20057;-78
2023/11/12 11:47:15;;;;;;;12.27;6.53;;;;;;;;;;4950691;28;20035;-78
2023/11/12 11:49:42;;;;;;;11.65;6.80;;;;;;;;;;4944197;28;20106;-78
2023/11/12 11:52:24;;;;;;;11.27;6.90;;;;;;;;;;4960563;28;20114;-77
2023/11/12 11:55:16;;;;;;;11.60;7.07;;;;;;;;;;4947820;28;20217;-77
2023/11/12 11:57:50;;;;;;;11.30;7.70;;;;;;;;;;4970788;28;20114;-77
2023/11/12 12:00:17;;;;;;;10.90;7.45;;;;;;;;;;4947517;28;20031;-78
2023/11/12 12:02:44;;;;;;;13.18;7.03;;;;;;;;;;4945358;28;20113;-78
2023/11/12 12:05:10;;;;;;;11.07;6.65;;;;;;;;;;4966374;28;20117;-79
2023/11/12 12:07:36;;;;;;;10.93;6.75;;;;;;;;;;4965780;28;20034;-78
2023/11/12 12:10:03;;;;;;;11.25;6.72;;;;;;;;;;4965663;28;20030;-78
2023/11/12 12:12:29;;;;;;;10.07;6.57;;;;;;;;;;4972106;28;20031;-79
2023/11/12 12:14:55;;;;;;;8.90;6.43;;;;;;;;;;4968687;28;20431;-79
2023/11/12 12:17:20;;;;;;;10.43;6.38;;;;;;;;;;4960533;28;20031;-79
2023/11/12 12:19:55;;;;;;;8.00;5.70;;;;;;;;;;4963524;28;20046;-78
2023/11/12 12:22:25;;;;;;;10.77;6.20;;;;;;;;;;4965832;28;20109;-78
2023/11/12 12:24:55;;;;;;;11.73;6.55;;;;;;;;;;4947941;28;20539;-78
2023/11/12 12:27:20;;;;;;;9.45;5.35;;;;;;;;;;4948722;28;20034;-78
2023/11/12 12:29:47;;;;;;;12.38;6.57;;;;;;;;;;4964873;28;20042;-78
2023/11/12 12:32:19;;;;;;;11.82;6.25;;;;;;;;;;4958179;28;20038;-78
2023/11/12 12:34:57;;;;;;;11.60;6.53;;;;;;;;;;4967840;28;20027;-78
2023/11/12 12:37:28;;;;;;;12.20;6.65;;;;;;;;;;4967381;28;20535;-82
2023/11/12 12:40:05;;;;;;;11.77;6.45;;;;;;;;;;4946309;28;20038;-83
2023/11/12 12:42:31;;;;;;;10.35;6.22;;;;;;;;;;4958386;28;20104;-83
2023/11/12 12:44:57;;;;;;;10.75;6.60;;;;;;;;;;4947059;28;20039;-83
2023/11/12 12:47:33;;;;;;;12.32;6.57;;;;;;;;;;4963348;28;20026;-83
2023/11/12 12:50:25;;;;;;;15.00;7.35;;;;;;;;;;4959747;28;20081;-84
2023/11/12 12:52:52;;;;;;;12.88;6.78;;;;;;;;;;4960935;28;20035;-83
2023/11/12 12:55:20;;;;;;;11.98;6.68;;;;;;;;;;4965401;28;20038;-84
2023/11/12 12:57:49;;;;;;;13.75;7.43;;;;;;;;;;4943157;28;20532;-83
2023/11/12 13:00:16;;;;;;;15.27;8.90;;;;;;;;;;4971397;28;20089;-84
2023/11/12 13:02:42;;;;;;;11.10;7.10;;;;;;;;;;4948619;28;20041;-84
2023/11/12 13:05:14;;;;;;;15.52;7.25;;;;;;;;;;4940195;28;20185;-83
2023/11/12 13:07:44;;;;;;;12.25;6.90;;;;;;;;;;4966658;28;20019;-84
2023/11/12 13:10:14;;;;;;;14.35;7.28;;;;;;;;;;4964483;28;20022;-83
2023/11/12 13:12:42;;;;;;;11.43;7.00;;;;;;;;;;4962664;28;20535;-84
2023/11/12 13:15:10;;;;;;;12.20;7.00;;;;;;;;;;4946627;28;20149;-83
2023/11/12 13:17:36;;;;;;;12.32;6.78;;;;;;;;;;4959164;28;20026;-84
2023/11/12 13:20:03;;;;;;;17.05;8.10;;;;;;;;;;4950194;28;20045;-84
2023/11/12 13:22:29;;;;;;;13.77;7.25;;;;;;;;;;4958642;28;20033;-83
2023/11/12 13:24:57;;;;;;;13.57;8.20;;;;;;;;;;4960504;28;20030;-83
2023/11/12 13:27:24;;;;;;;13.30;8.00;;;;;;;;;;4968508;28;20023;-84
2023/11/12 13:29:49;;;;;;;12.55;7.57;;;;;;;;;;4959593;28;20142;-84
2023/11/12 13:32:15;;;;;;;12.43;7.20;;;;;;;;;;4957632;28;20026;-82
2023/11/12 13:34:44;;;;;;;14.43;7.53;;;;;;;;;;4964735;28;20072;-82
2023/11/12 13:37:10;;;;;;;11.48;6.43;;;;;;;;;;4944940;28;20048;-82
2023/11/12 13:39:37;;;;;;;13.27;8.02;;;;;;;;;;4955694;28;20193;-82
2023/11/12 13:42:06;;;;;;;14.77;7.97;;;;;;;;;;4974835;28;20037;-82
2023/11/12 13:44:36;;;;;;;16.33;8.80;;;;;;;;;;4968588;28;20097;-82
2023/11/12 13:47:03;;;;;;;15.13;8.07;;;;;;;;;;4960074;28;20554;-82
2023/11/12 13:49:28;;;;;;;14.90;8.05;;;;;;;;;;4971402;28;20038;-82
2023/11/12 13:51:55;;;;;;;15.25;8.25;;;;;;;;;;4964604;28;20454;-82
2023/11/12 13:54:24;;;;;;;14.82;7.43;;;;;;;;;;4963998;28;20045;-82
2023/11/12 13:56:50;;;;;;;13.70;7.65;;;;;;;;;;4970106;28;20057;-82
2023/11/12 13:59:20;;;;;;;12.55;7.50;;;;;;;;;;4950636;28;20395;-82
2023/11/12 14:01:49;;;;;;;14.35;7.93;;;;;;;;;;4961704;28;20022;-82
2023/11/12 14:04:14;;;;;;;13.23;7.90;;;;;;;;;;4948965;28;20069;-82
2023/11/12 14:06:40;;;;;;;17.52;9.05;;;;;;;;;;4973292;28;20125;-82
2023/11/12 14:09:09;;;;;;;15.93;8.90;;;;;;;;;;4952283;28;20058;-82
2023/11/12 14:11:36;;;;;;;13.63;7.95;;;;;;;;;;4960923;28;20043;-82
2023/11/12 14:14:02;;;;;;;15.48;7.88;;;;;;;;;;4949799;28;20035;-82
2023/11/12 14:16:28;;;;;;;16.23;8.63;;;;;;;;;;4951103;28;20318;-82
2023/11/12 14:18:54;;;;;;;13.23;8.35;;;;;;;;;;4959527;28;20031;-82
2023/11/12 14:21:23;;;;;;;15.60;7.80;;;;;;;;;;4954489;28;20030;-82
2023/11/12 14:23:50;;;;;;;15.68;8.57;;;;;;;;;;4954905;28;20276;-83
2023/11/12 14:26:16;;;;;;;17.25;9.27;;;;;;;;;;4947310;28;20045;-84